Florestopolis, Brazil
Current Conditions -  °F | °C
As of 5:00 PM on Wednesday 26 Nov 2014 (Local Time) from SBLO Reporting Station
Scattered Clouds Scattered Clouds  
Wind Chill: 82°   Ceiling: Unl
Heat Index: 87°   Visibility: 6mi
Dew Point: 72°   Wind: 5mph
Humidity: 70%   Direction: 210°SSW
Pressure: 29.8"   Gusts: NA
Location:  22.87°S, 51.39°W
Report Text: SBLO 261900Z 21004KT 9999 SCT030 28/22 Q1009
Loading
Personal Weather Stations






























Interactive Weather Map New forecast layout! Learn more

10-Day Weather Forecast

Advertisements
Track Severe Weather on mobile